Time;durP1;ratioP1;P1;durP2;ratioP2;P2;SDS_P1;SDS_P2;PMS_P1;PMS_P2;Temp;Humidity;BMP_temperature;BMP_pressure;BME280_temperature;BME280_humidity;BME280_pressure;Samples;Min_cycle;Max_cycle;Signal;HPM_P1;HPM_P2
2021/05/06 00:32:15;;;;;;;1.23;0.60;;;22.90;35.80;;;;;;5053189;28;20397;-67
2021/05/06 00:34:40;;;;;;;1.48;0.60;;;22.90;35.80;;;;;;5034586;28;20413;-64
2021/05/06 00:37:06;;;;;;;1.10;0.50;;;22.90;35.80;;;;;;5052942;28;20392;-66
2021/05/06 00:39:39;;;;;;;1.65;0.50;;;22.90;35.80;;;;;;5052975;28;20398;-66
2021/05/06 00:42:19;;;;;;;1.25;0.50;;;22.90;35.70;;;;;;5034933;28;20393;-67
2021/05/06 01:05:35;;;;;;;0.97;0.40;;;22.80;35.60;;;;;;5052269;28;20373;-69
2021/05/06 01:12:59;;;;;;;0.90;0.50;;;22.80;35.60;;;;;;5051744;28;20444;-65
2021/05/06 01:15:24;;;;;;;1.53;0.40;;;22.80;35.60;;;;;;5052272;28;20429;-64
2021/05/06 01:17:50;;;;;;;0.90;0.40;;;22.80;35.60;;;;;;5051822;28;20389;-64
2021/05/06 01:20:16;;;;;;;1.00;0.40;;;22.80;35.60;;;;;;5033831;28;20412;-68
2021/05/06 01:22:42;;;;;;;0.85;0.40;;;22.80;35.60;;;;;;5050085;28;20450;-69
2021/05/06 01:25:09;;;;;;;0.88;0.50;;;22.80;35.60;;;;;;5051907;28;20470;-65
2021/05/06 01:30:18;;;;;;;1.10;0.60;;;22.80;35.50;;;;;;5051941;28;20400;-63
2021/05/06 01:35:16;;;;;;;1.35;0.47;;;22.80;35.50;;;;;;5052138;28;20400;-65
2021/05/06 01:38:09;;;;;;;1.05;0.50;;;22.80;35.50;;;;;;5051715;28;20849;-67
2021/05/06 01:59:36;;;;;;;1.20;0.57;;;22.70;35.40;;;;;;5051551;28;20376;-71
2021/05/06 02:02:02;;;;;;;0.85;0.45;;;22.70;35.40;;;;;;5051558;28;20934;-65
2021/05/06 02:04:27;;;;;;;0.85;0.43;;;22.70;35.50;;;;;;5050196;28;20394;-64
2021/05/06 02:06:53;;;;;;;0.90;0.50;;;22.70;35.50;;;;;;5049488;28;20490;-65
2021/05/06 02:09:19;;;;;;;0.77;0.40;;;22.70;35.40;;;;;;5051416;28;20400;-65
2021/05/06 02:11:44;;;;;;;1.10;0.50;;;22.70;35.40;;;;;;5033130;28;20409;-68
2021/05/06 02:14:10;;;;;;;1.20;0.50;;;22.70;35.40;;;;;;5033437;28;20435;-65
2021/05/06 02:16:38;;;;;;;1.00;0.57;;;22.70;35.40;;;;;;5051070;28;20484;-63
2021/05/06 02:19:05;;;;;;;0.90;0.50;;;22.70;35.40;;;;;;5051117;28;20423;-66
2021/05/06 02:21:31;;;;;;;1.42;0.57;;;22.70;35.40;;;;;;5049992;28;20394;-69
2021/05/06 02:23:57;;;;;;;0.88;0.40;;;22.70;35.40;;;;;;5051155;28;20922;-67
2021/05/06 02:26:22;;;;;;;0.90;0.40;;;22.70;35.40;;;;;;5033474;28;20381;-69
2021/05/06 02:28:48;;;;;;;0.80;0.40;;;22.70;35.40;;;;;;5050723;28;20412;-63
2021/05/06 02:31:14;;;;;;;1.25;0.57;;;22.70;35.40;;;;;;5051253;28;20388;-68
2021/05/06 02:33:43;;;;;;;0.80;0.50;;;22.70;35.40;;;;;;5049659;28;20421;-70
2021/05/06 02:36:10;;;;;;;0.97;0.50;;;22.70;35.40;;;;;;5033135;28;20892;-67
2021/05/06 02:38:35;;;;;;;0.90;0.50;;;22.70;35.40;;;;;;5052375;28;20756;-69
2021/05/06 02:41:01;;;;;;;0.60;0.40;;;22.70;35.40;;;;;;5054827;28;20387;-72
2021/05/06 02:43:27;;;;;;;0.80;0.40;;;22.70;35.40;;;;;;5055149;28;20393;-70
2021/05/06 02:45:53;;;;;;;1.00;0.50;;;22.60;35.30;;;;;;5055156;28;20764;-66
2021/05/06 02:48:19;;;;;;;0.90;0.40;;;22.60;35.30;;;;;;5054944;28;20401;-69
2021/05/06 02:50:50;;;;;;;0.98;0.50;;;22.60;35.30;;;;;;5054438;28;20377;-70
2021/05/06 02:53:19;;;;;;;1.25;0.50;;;22.60;35.30;;;;;;5037044;28;21056;-63
2021/05/06 03:04:02;;;;;;;0.95;0.40;;;22.60;35.30;;;;;;5055062;28;20384;-64
2021/05/06 03:06:30;;;;;;;1.35;0.40;;;22.60;35.30;;;;;;5054746;28;20397;-69
2021/05/06 03:09:00;;;;;;;1.00;0.50;;;22.60;35.40;;;;;;5054317;28;20396;-66
2021/05/06 03:11:38;;;;;;;1.20;0.40;;;22.50;35.70;;;;;;5053172;28;20397;-67
2021/05/06 03:25:09;;;;;;;1.00;0.40;;;22.50;36.00;;;;;;5055583;28;20747;-63
2021/05/06 03:27:41;;;;;;;1.77;0.60;;;22.60;36.50;;;;;;5071923;28;20386;-63
2021/05/06 03:30:28;;;;;;;1.45;0.50;;;22.60;36.90;;;;;;5076456;28;20898;-63
2021/05/06 03:35:42;;;;;;;1.88;0.50;;;22.60;36.20;;;;;;5094227;28;20405;-63
2021/05/06 03:46:48;;;;;;;1.42;0.50;;;22.70;36.20;;;;;;5017718;28;20391;-70
2021/05/06 04:19:06;;;;;;;1.35;0.43;;;22.70;35.40;;;;;;5032727;28;20405;-63
2021/05/06 04:27:01;;;;;;;2.45;0.55;;;22.60;35.50;;;;;;5033287;28;20382;-63
2021/05/06 04:37:41;;;;;;;3.58;0.50;;;22.60;35.80;;;;;;5033298;28;20430;-62
2021/05/06 04:40:14;;;;;;;1.88;0.50;;;22.60;36.00;;;;;;5015266;28;20407;-63
2021/05/06 04:55:59;;;;;;;1.10;0.60;;;22.60;35.60;;;;;;5032809;28;20386;-63
2021/05/06 05:06:27;;;;;;;2.07;0.53;;;22.50;35.10;;;;;;5052431;28;20885;-62
2021/05/06 05:09:14;;;;;;;2.70;0.60;;;22.50;35.00;;;;;;5051898;28;20393;-62
2021/05/06 05:12:30;;;;;;;1.42;0.52;;;22.50;35.30;;;;;;5034097;28;20818;-62
2021/05/06 05:25:12;;;;;;;1.92;0.50;;;22.50;35.60;;;;;;5051649;28;20389;-75
2021/05/06 05:27:38;;;;;;;2.08;0.70;;;22.50;35.60;;;;;;5034005;28;20389;-75
2021/05/06 05:30:05;;;;;;;2.13;0.50;;;22.50;35.70;;;;;;5052047;28;20422;-74
2021/05/06 05:32:31;;;;;;;2.75;0.50;;;22.50;36.20;;;;;;5034064;28;20389;-74
2021/05/06 05:37:24;;;;;;;2.78;0.70;;;22.50;35.90;;;;;;5052188;28;20393;-74
2021/05/06 05:45:27;;;;;;;2.17;0.50;;;22.40;35.80;;;;;;5051807;28;20892;-73
2021/05/06 05:55:41;;;;;;;2.03;0.60;;;22.40;36.40;;;;;;5045381;28;20417;-66
2021/05/06 05:58:06;;;;;;;1.83;0.65;;;22.50;35.80;;;;;;5023502;28;20772;-72
2021/05/06 06:00:32;;;;;;;1.05;0.50;;;22.50;35.70;;;;;;5051447;28;20383;-72
2021/05/06 06:02:58;;;;;;;2.50;0.80;;;22.50;35.70;;;;;;5016160;28;20391;-71
2021/05/06 06:05:24;;;;;;;1.57;0.60;;;22.50;35.60;;;;;;5016451;28;20481;-62
2021/05/06 06:07:50;;;;;;;1.33;0.60;;;22.50;35.60;;;;;;5020370;28;20419;-72
2021/05/06 06:10:15;;;;;;;2.05;0.70;;;22.40;35.60;;;;;;5031700;28;20594;-73
2021/05/06 06:12:41;;;;;;;2.53;0.60;;;22.40;35.70;;;;;;5030815;28;20848;-71
2021/05/06 06:17:59;;;;;;;1.50;0.70;;;22.40;35.70;;;;;;5010638;28;20901;-73
2021/05/06 06:20:27;;;;;;;2.10;0.70;;;22.40;35.70;;;;;;5013576;28;20441;-72
2021/05/06 06:22:53;;;;;;;1.90;0.70;;;22.40;35.90;;;;;;5013374;28;20455;-73
2021/05/06 06:25:18;;;;;;;2.47;0.67;;;22.40;36.00;;;;;;5013727;28;20458;-73
2021/05/06 06:27:45;;;;;;;1.33;0.60;;;22.40;35.80;;;;;;5012733;28;20399;-73
2021/05/06 06:30:13;;;;;;;1.67;0.82;;;22.40;35.60;;;;;;5031437;28;20458;-62
2021/05/06 06:32:38;;;;;;;1.00;0.50;;;22.40;35.60;;;;;;5013585;28;20391;-63
2021/05/06 06:35:05;;;;;;;1.83;0.68;;;22.40;35.60;;;;;;5030704;28;20651;-73
2021/05/06 06:37:30;;;;;;;1.25;0.70;;;22.40;35.60;;;;;;5013537;28;20391;-67
2021/05/06 06:39:56;;;;;;;2.30;0.80;;;22.50;35.50;;;;;;5030828;28;20403;-68
2021/05/06 06:42:21;;;;;;;2.07;0.80;;;22.50;35.70;;;;;;5030053;28;20388;-63
2021/05/06 06:44:48;;;;;;;1.52;0.60;;;22.50;35.30;;;;;;5031073;28;20391;-72
2021/05/06 06:47:14;;;;;;;1.70;0.80;;;22.50;35.50;;;;;;5030706;28;20392;-63
2021/05/06 06:49:40;;;;;;;1.65;0.75;;;22.50;35.50;;;;;;5031118;28;20398;-62
2021/05/06 06:52:09;;;;;;;1.90;0.80;;;22.50;35.20;;;;;;5031053;28;20395;-73
2021/05/06 06:54:35;;;;;;;1.58;0.80;;;22.50;35.60;;;;;;5031132;28;20414;-63
2021/05/06 06:57:02;;;;;;;2.35;1.20;;;22.50;35.30;;;;;;5013003;28;20750;-69
2021/05/06 06:59:28;;;;;;;2.90;1.30;;;22.60;35.40;;;;;;5031228;28;20482;-63
2021/05/06 07:01:53;;;;;;;3.25;1.38;;;22.60;35.40;;;;;;5013047;28;20466;-63
2021/05/06 07:04:19;;;;;;;3.87;1.40;;;22.50;35.30;;;;;;5030928;28;20467;-70
2021/05/06 07:06:45;;;;;;;3.30;1.15;;;22.60;35.20;;;;;;5030975;28;20391;-66
2021/05/06 07:09:11;;;;;;;2.90;1.00;;;22.60;35.00;;;;;;5012815;28;20410;-69
2021/05/06 07:11:38;;;;;;;3.20;1.27;;;22.60;34.90;;;;;;5012993;28;20443;-72
2021/05/06 07:14:04;;;;;;;2.38;1.13;;;22.60;34.80;;;;;;5030731;28;20940;-72
2021/05/06 07:16:30;;;;;;;3.17;1.10;;;22.70;34.90;;;;;;5031078;28;20383;-72
2021/05/06 07:18:57;;;;;;;2.53;1.42;;;22.60;34.80;;;;;;5030569;28;20745;-63
2021/05/06 07:21:24;;;;;;;2.58;1.27;;;22.70;35.50;;;;;;5030738;28;20395;-62
2021/05/06 07:23:53;;;;;;;2.42;1.10;;;22.70;34.80;;;;;;5030677;28;20387;-63
2021/05/06 07:26:18;;;;;;;2.80;1.30;;;22.70;34.80;;;;;;5034143;28;20394;-62
2021/05/06 07:28:44;;;;;;;2.42;1.10;;;22.70;34.80;;;;;;5034376;28;20395;-62
2021/05/06 07:31:11;;;;;;;3.17;1.20;;;22.70;34.80;;;;;;5033933;28;20388;-73
2021/05/06 07:33:39;;;;;;;2.45;1.20;;;22.70;34.70;;;;;;5016376;28;20990;-73
2021/05/06 07:36:05;;;;;;;2.42;1.25;;;22.80;34.70;;;;;;5034262;28;20747;-73
2021/05/06 07:38:31;;;;;;;2.25;1.08;;;22.80;34.60;;;;;;5033713;28;20399;-73
2021/05/06 07:40:59;;;;;;;1.83;1.00;;;22.80;35.20;;;;;;5016299;28;20780;-73
2021/05/06 07:43:26;;;;;;;2.17;1.10;;;22.80;34.80;;;;;;5016339;28;20473;-69
2021/05/06 07:45:52;;;;;;;2.17;0.88;;;22.70;35.10;;;;;;5033915;28;20970;-63
2021/05/06 07:48:18;;;;;;;2.63;0.90;;;22.80;35.30;;;;;;5034018;28;20391;-63
2021/05/06 07:50:45;;;;;;;2.03;0.70;;;22.80;35.30;;;;;;5033964;28;20474;-72
2021/05/06 07:53:57;;;;;;;2.17;0.90;;;22.80;35.60;;;;;;5032961;28;20766;-70
2021/05/06 07:55:57;;;;;;;2.20;0.80;;;22.70;35.40;;;;;;5022309;28;20427;-73
2021/05/06 07:58:22;;;;;;;1.63;0.77;;;22.70;35.80;;;;;;5033067;28;20558;-63
2021/05/06 08:00:48;;;;;;;1.55;0.80;;;22.70;35.70;;;;;;5015895;28;20899;-65
2021/05/06 08:03:14;;;;;;;1.50;0.80;;;22.80;35.70;;;;;;5033321;28;20395;-62
2021/05/06 08:05:39;;;;;;;2.40;0.80;;;22.70;35.60;;;;;;5033595;28;20747;-64
2021/05/06 08:08:06;;;;;;;2.75;1.00;;;22.70;35.40;;;;;;5033444;28;20426;-69
2021/05/06 08:10:32;;;;;;;2.55;0.90;;;22.70;35.10;;;;;;5015468;28;20696;-73
2021/05/06 08:13:02;;;;;;;3.53;1.10;;;22.70;35.00;;;;;;5033063;28;20933;-66
2021/05/06 08:15:29;;;;;;;2.72;0.70;;;22.70;34.80;;;;;;5015922;28;20403;-62
2021/05/06 08:17:55;;;;;;;2.70;0.90;;;22.70;34.50;;;;;;5015865;28;20461;-63
2021/05/06 08:20:21;;;;;;;3.22;0.85;;;22.70;34.40;;;;;;5015700;28;20407;-63
2021/05/06 08:22:47;;;;;;;1.60;0.70;;;22.70;34.30;;;;;;5033253;28;20434;-63
2021/05/06 08:25:15;;;;;;;2.30;0.90;;;22.70;34.40;;;;;;5033015;28;20391;-70
2021/05/06 08:27:41;;;;;;;2.03;0.88;;;22.70;34.40;;;;;;5033308;28;20383;-65
2021/05/06 08:30:10;;;;;;;2.97;0.73;;;22.70;34.40;;;;;;5015597;28;20395;-66
2021/05/06 08:32:36;;;;;;;2.50;0.70;;;22.70;34.50;;;;;;5033070;28;20776;-63
2021/05/06 08:35:03;;;;;;;3.30;0.80;;;22.70;34.50;;;;;;5014659;28;20445;-68
2021/05/06 08:37:28;;;;;;;2.60;0.88;;;22.70;34.50;;;;;;5032894;28;20782;-67
2021/05/06 08:39:54;;;;;;;2.15;0.80;;;22.70;34.50;;;;;;5032961;28;20401;-63
2021/05/06 08:42:20;;;;;;;1.80;0.70;;;22.70;34.30;;;;;;5034088;28;20383;-63
2021/05/06 08:44:46;;;;;;;2.70;0.90;;;22.70;34.20;;;;;;5016564;28;20498;-66
2021/05/06 08:47:21;;;;;;;4.65;1.08;;;22.60;34.50;;;;;;5014719;28;20390;-66
2021/05/06 08:49:47;;;;;;;2.80;0.90;;;22.70;34.90;;;;;;5015180;28;20920;-67
2021/05/06 08:52:21;;;;;;;1.98;0.88;;;22.70;34.90;;;;;;5032603;28;20399;-71
2021/05/06 08:54:52;;;;;;;3.05;0.98;;;22.70;34.80;;;;;;5013963;28;20431;-72
2021/05/06 08:57:23;;;;;;;2.30;0.80;;;22.70;34.90;;;;;;5031737;28;20883;-73
2021/05/06 08:59:49;;;;;;;3.08;0.90;;;22.70;35.10;;;;;;5032457;28;20395;-72
2021/05/06 09:02:15;;;;;;;2.25;0.65;;;22.70;35.00;;;;;;5032656;28;20398;-65
2021/05/06 09:04:41;;;;;;;3.13;0.70;;;22.70;34.80;;;;;;5031833;28;20434;-62
2021/05/06 09:07:11;;;;;;;1.38;0.68;;;22.60;34.80;;;;;;5014166;28;20418;-71
2021/05/06 09:09:43;;;;;;;1.90;0.70;;;22.70;34.80;;;;;;5031325;28;20395;-62
2021/05/06 09:12:09;;;;;;;1.75;0.60;;;22.60;34.60;;;;;;5012644;28;20422;-62
2021/05/06 09:14:54;;;;;;;1.50;0.80;;;22.70;34.60;;;;;;5031099;28;20759;-62
2021/05/06 09:17:27;;;;;;;1.95;0.80;;;22.70;34.60;;;;;;5012968;28;20399;-73
2021/05/06 09:20:05;;;;;;;1.58;0.77;;;22.70;34.60;;;;;;5031069;28;20430;-71
2021/05/06 09:22:42;;;;;;;1.48;0.68;;;22.70;34.60;;;;;;5013421;28;20474;-72
2021/05/06 09:25:30;;;;;;;1.92;0.70;;;22.70;34.50;;;;;;5029909;28;20395;-67
2021/05/06 09:28:02;;;;;;;1.42;0.57;;;22.70;34.60;;;;;;5013035;28;20728;-63
2021/05/06 09:30:55;;;;;;;2.60;0.60;;;22.70;34.50;;;;;;5030700;28;20419;-65
2021/05/06 09:33:35;;;;;;;1.20;0.60;;;22.70;34.60;;;;;;5006964;28;20425;-64
2021/05/06 09:36:12;;;;;;;1.20;0.60;;;22.70;34.60;;;;;;5030736;28;20395;-65
2021/05/06 09:38:50;;;;;;;1.58;0.70;;;22.60;34.60;;;;;;5030597;28;20747;-72
2021/05/06 09:41:29;;;;;;;1.10;0.60;;;22.60;34.70;;;;;;5031256;28;20422;-62
2021/05/06 09:44:05;;;;;;;1.07;0.50;;;22.60;34.70;;;;;;5014277;28;20992;-62
2021/05/06 09:46:43;;;;;;;1.20;0.60;;;22.60;34.60;;;;;;5031630;28;20436;-63
2021/05/06 09:49:10;;;;;;;1.30;0.55;;;22.60;34.60;;;;;;5031061;28;20481;-63
2021/05/06 09:51:47;;;;;;;1.30;0.60;;;22.60;34.60;;;;;;5031787;28;20383;-62
2021/05/06 09:54:19;;;;;;;1.60;0.50;;;22.60;34.70;;;;;;5031805;28;20992;-62
2021/05/06 09:56:45;;;;;;;1.42;0.60;;;22.60;34.70;;;;;;5013982;28;20754;-62
2021/05/06 09:59:22;;;;;;;0.90;0.50;;;22.60;34.70;;;;;;5013609;28;20395;-62
2021/05/06 10:01:48;;;;;;;1.20;0.55;;;22.60;34.70;;;;;;5013754;28;20494;-62
2021/05/06 10:04:17;;;;;;;1.23;0.60;;;22.60;34.60;;;;;;5013583;28;20837;-62
2021/05/06 10:07:03;;;;;;;1.65;0.60;;;22.60;34.70;;;;;;5013860;28;20395;-63
2021/05/06 10:09:31;;;;;;;1.10;0.50;;;22.60;34.70;;;;;;5031357;28;20411;-62
2021/05/06 10:11:57;;;;;;;1.25;0.60;;;22.60;34.70;;;;;;5013231;28;20512;-62
2021/05/06 10:14:23;;;;;;;1.20;0.57;;;22.60;34.60;;;;;;5031033;28;20783;-65
2021/05/06 10:16:49;;;;;;;1.33;0.60;;;22.70;34.60;;;;;;5031448;28;20471;-73
2021/05/06 10:19:16;;;;;;;0.77;0.50;;;22.70;34.50;;;;;;5031012;28;20391;-73
2021/05/06 10:21:46;;;;;;;1.27;0.63;;;22.70;34.40;;;;;;5031461;28;20482;-70
2021/05/06 10:24:15;;;;;;;1.13;0.60;;;22.70;34.40;;;;;;5013747;28;20744;-71
2021/05/06 10:26:41;;;;;;;0.90;0.40;;;22.70;34.40;;;;;;5036136;28;20390;-71
2021/05/06 10:29:07;;;;;;;1.30;0.53;;;22.70;34.40;;;;;;5039417;28;20444;-71
2021/05/06 10:31:39;;;;;;;0.73;0.40;;;22.60;34.40;;;;;;5038942;28;20480;-72
2021/05/06 10:34:05;;;;;;;1.20;0.60;;;22.70;34.50;;;;;;5018955;28;20431;-72
2021/05/06 10:36:31;;;;;;;1.00;0.50;;;22.60;34.50;;;;;;5040529;28;20386;-71
2021/05/06 10:38:57;;;;;;;0.85;0.50;;;22.60;34.50;;;;;;5040037;28;20465;-72
2021/05/06 10:41:22;;;;;;;1.50;0.43;;;22.70;34.60;;;;;;5038518;28;20400;-72
2021/05/06 10:43:59;;;;;;;1.80;0.60;;;22.70;34.50;;;;;;5036192;28;20403;-72
2021/05/06 10:46:57;;;;;;;0.88;0.40;;;22.70;34.40;;;;;;5041260;28;20876;-72
2021/05/06 10:49:28;;;;;;;1.40;0.60;;;22.70;34.40;;;;;;5039941;28;20430;-70
2021/05/06 10:52:05;;;;;;;0.80;0.50;;;22.60;34.40;;;;;;5019900;28;20445;-71
2021/05/06 10:54:50;;;;;;;1.17;0.60;;;22.70;34.50;;;;;;5036788;28;20477;-72
2021/05/06 10:57:20;;;;;;;1.42;0.63;;;22.70;34.40;;;;;;5019848;28;20395;-73
2021/05/06 10:59:47;;;;;;;1.15;0.50;;;22.70;34.40;;;;;;5043209;28;20387;-73
2021/05/06 11:02:44;;;;;;;1.02;0.60;;;22.70;34.30;;;;;;5044894;28;20392;-72
2021/05/06 11:05:18;;;;;;;1.00;0.50;;;22.80;34.30;;;;;;5040127;28;20533;-73
2021/05/06 11:08:07;;;;;;;1.08;0.50;;;22.70;34.20;;;;;;5042452;28;20472;-72
2021/05/06 11:10:46;;;;;;;1.10;0.50;;;22.80;34.20;;;;;;5015039;28;20921;-73
2021/05/06 11:13:12;;;;;;;0.95;0.50;;;22.80;34.20;;;;;;5039873;28;20422;-72
2021/05/06 11:15:39;;;;;;;1.05;0.40;;;22.80;34.30;;;;;;5042414;28;20379;-72
2021/05/06 11:18:07;;;;;;;0.88;0.40;;;22.80;34.20;;;;;;5042271;28;20423;-71
2021/05/06 11:20:34;;;;;;;1.10;0.50;;;22.80;34.60;;;;;;5043759;28;20815;-72
2021/05/06 11:23:01;;;;;;;1.30;0.50;;;22.80;34.20;;;;;;5026096;28;20400;-73
2021/05/06 11:27:53;;;;;;;1.10;0.50;;;22.80;34.10;;;;;;5043706;28;20914;-71
2021/05/06 11:30:34;;;;;;;0.90;0.43;;;22.80;34.10;;;;;;5049635;28;20385;-62
2021/05/06 11:33:18;;;;;;;0.93;0.50;;;22.80;34.20;;;;;;5054324;28;20405;-72
2021/05/06 11:35:56;;;;;;;0.93;0.43;;;22.80;34.10;;;;;;5054162;28;20456;-63
2021/05/06 11:38:23;;;;;;;0.70;0.32;;;22.80;34.20;;;;;;5036262;28;20404;-62
2021/05/06 11:40:57;;;;;;;0.95;0.50;;;22.80;34.20;;;;;;5036169;28;20385;-73
2021/05/06 11:43:23;;;;;;;0.60;0.40;;;22.80;34.10;;;;;;5053686;28;20394;-72
2021/05/06 11:45:49;;;;;;;0.77;0.40;;;22.80;34.20;;;;;;5053617;28;20393;-72
2021/05/06 11:48:16;;;;;;;0.90;0.40;;;22.80;34.20;;;;;;5054060;28;20996;-63
2021/05/06 11:50:44;;;;;;;0.68;0.30;;;22.80;34.20;;;;;;5036013;28;20893;-66
2021/05/06 11:53:16;;;;;;;0.95;0.40;;;22.80;34.20;;;;;;5035625;28;20406;-67
2021/05/06 11:55:44;;;;;;;1.23;0.50;;;22.80;34.20;;;;;;5053890;28;20401;-72
2021/05/06 11:58:11;;;;;;;0.95;0.40;;;22.80;34.20;;;;;;5053836;28;20421;-72
2021/05/06 12:00:39;;;;;;;0.50;0.40;;;22.80;34.20;;;;;;5053799;28;20416;-71
2021/05/06 12:03:10;;;;;;;1.00;0.40;;;22.80;34.30;;;;;;5036082;28;20397;-63
2021/05/06 12:05:53;;;;;;;0.90;0.43;;;22.80;34.20;;;;;;5053197;28;20389;-65
2021/05/06 12:08:21;;;;;;;0.88;0.30;;;22.80;34.20;;;;;;5035740;28;20481;-72
2021/05/06 12:10:47;;;;;;;1.08;0.47;;;22.80;34.20;;;;;;5034897;28;20393;-72
2021/05/06 12:13:14;;;;;;;1.02;0.50;;;22.80;34.20;;;;;;5052976;28;20421;-72
2021/05/06 12:15:40;;;;;;;1.00;0.40;;;22.80;34.20;;;;;;5053539;28;20465;-72
2021/05/06 12:18:19;;;;;;;1.00;0.50;;;22.80;34.20;;;;;;5053387;28;20524;-72
2021/05/06 12:20:56;;;;;;;1.02;0.43;;;22.80;34.20;;;;;;5053403;28;20377;-62
2021/05/06 12:23:24;;;;;;;0.73;0.40;;;22.80;34.20;;;;;;5052623;28;20873;-62
2021/05/06 12:25:50;;;;;;;0.90;0.50;;;22.80;34.20;;;;;;5053288;28;20491;-62
2021/05/06 12:28:16;;;;;;;1.33;0.40;;;22.80;34.20;;;;;;5034209;28;20909;-64
2021/05/06 12:30:42;;;;;;;0.95;0.50;;;22.80;34.20;;;;;;5033974;28;20387;-62
2021/05/06 12:33:07;;;;;;;1.17;0.53;;;22.80;34.20;;;;;;5051959;28;20493;-62
2021/05/06 12:35:48;;;;;;;0.60;0.40;;;22.80;34.10;;;;;;5051215;28;20400;-73
2021/05/06 12:38:15;;;;;;;1.20;0.45;;;22.80;34.10;;;;;;5051983;28;20464;-73
2021/05/06 12:40:41;;;;;;;0.77;0.40;;;22.80;34.10;;;;;;5051804;28;20444;-72
2021/05/06 12:43:29;;;;;;;1.10;0.50;;;22.80;34.10;;;;;;5033979;28;20433;-72
2021/05/06 12:46:06;;;;;;;1.08;0.50;;;22.80;34.00;;;;;;5033871;28;20925;-73
2021/05/06 12:48:36;;;;;;;1.30;0.50;;;22.80;34.10;;;;;;5055959;28;20384;-68
2021/05/06 12:51:04;;;;;;;1.05;0.40;;;22.90;34.10;;;;;;5052973;28;20948;-74
2021/05/06 12:53:29;;;;;;;1.33;0.50;;;22.80;34.00;;;;;;5051008;28;20513;-72
2021/05/06 12:55:55;;;;;;;1.05;0.45;;;22.90;34.00;;;;;;5033723;28;20418;-74
2021/05/06 12:58:27;;;;;;;1.67;0.40;;;22.90;34.00;;;;;;5033792;28;20378;-74
2021/05/06 13:00:54;;;;;;;1.42;0.43;;;22.90;34.00;;;;;;5033640;28;20761;-75
2021/05/06 13:03:35;;;;;;;1.30;0.40;;;22.90;34.00;;;;;;5033014;28;20742;-74
2021/05/06 13:06:06;;;;;;;1.20;0.40;;;22.90;33.80;;;;;;5034675;28;20389;-73
2021/05/06 13:08:39;;;;;;;1.70;0.50;;;23.00;33.90;;;;;;5051092;28;20928;-71
2021/05/06 13:11:11;;;;;;;2.38;0.50;;;22.90;33.70;;;;;;5033384;28;20382;-73
2021/05/06 13:13:45;;;;;;;1.65;0.50;;;22.90;34.00;;;;;;5032593;28;20457;-73
2021/05/06 13:16:12;;;;;;;0.90;0.40;;;22.90;34.00;;;;;;5033270;28;20476;-73
2021/05/06 13:18:39;;;;;;;1.50;0.60;;;23.00;34.20;;;;;;5033186;28;20415;-74
2021/05/06 13:21:07;;;;;;;3.75;0.65;;;22.90;34.50;;;;;;5050943;28;20404;-70
2021/05/06 13:23:34;;;;;;;2.03;0.50;;;22.90;34.60;;;;;;5049129;28;20393;-74
2021/05/06 13:26:05;;;;;;;3.83;0.70;;;23.00;34.60;;;;;;5033027;28;20397;-72
2021/05/06 13:28:32;;;;;;;2.85;0.60;;;23.00;34.60;;;;;;5050539;28;20397;-74
2021/05/06 13:31:22;;;;;;;2.47;0.60;;;23.00;34.50;;;;;;5032979;28;20433;-74
2021/05/06 13:33:51;;;;;;;2.72;0.50;;;23.00;34.40;;;;;;5050663;28;20421;-67
2021/05/06 13:36:20;;;;;;;2.72;0.43;;;23.00;34.30;;;;;;5050679;28;20873;-72
2021/05/06 13:38:50;;;;;;;2.08;0.40;;;23.10;34.30;;;;;;5032741;28;20409;-74
2021/05/06 13:41:17;;;;;;;2.10;0.60;;;23.00;34.20;;;;;;5050669;28;20417;-74
2021/05/06 13:43:43;;;;;;;1.90;0.60;;;23.00;34.20;;;;;;5050372;28;20386;-75
2021/05/06 13:46:09;;;;;;;1.60;0.50;;;23.00;34.20;;;;;;5050394;28;20390;-73
2021/05/06 13:48:36;;;;;;;1.73;0.50;;;23.00;34.10;;;;;;5050525;28;20496;-72
2021/05/06 13:51:08;;;;;;;1.65;0.50;;;23.00;34.10;;;;;;5050624;28;20424;-75
2021/05/06 13:53:34;;;;;;;1.80;0.65;;;23.00;34.10;;;;;;5032188;28;20545;-74
2021/05/06 13:56:00;;;;;;;1.83;0.40;;;23.00;34.00;;;;;;5050636;28;20539;-70
2021/05/06 13:58:25;;;;;;;1.30;0.47;;;23.00;34.00;;;;;;5050414;28;20393;-74
2021/05/06 14:00:51;;;;;;;3.03;0.60;;;23.00;33.90;;;;;;5050402;28;20400;-74
2021/05/06 14:03:17;;;;;;;1.42;0.50;;;23.00;33.90;;;;;;5050485;28;20401;-72
2021/05/06 14:05:42;;;;;;;2.33;0.53;;;23.00;33.90;;;;;;5049591;28;20394;-72
2021/05/06 14:08:08;;;;;;;2.42;0.55;;;23.00;33.90;;;;;;5032463;28;20408;-70
2021/05/06 14:10:35;;;;;;;3.13;0.80;;;23.00;33.80;;;;;;5050309;28;20385;-67
2021/05/06 14:13:00;;;;;;;3.72;0.70;;;23.00;33.50;;;;;;5032052;28;20508;-74
2021/05/06 14:15:26;;;;;;;2.03;0.60;;;23.00;33.60;;;;;;5031337;28;20448;-72
2021/05/06 14:17:52;;;;;;;2.93;0.57;;;23.00;33.60;;;;;;5050153;28;20392;-74
2021/05/06 14:20:18;;;;;;;1.73;0.70;;;23.00;33.60;;;;;;5050163;28;20393;-72
2021/05/06 14:22:44;;;;;;;1.47;0.50;;;23.00;33.60;;;;;;5049992;28;20419;-73
2021/05/06 14:25:10;;;;;;;3.00;0.80;;;23.00;33.60;;;;;;5050231;28;20388;-73
2021/05/06 14:27:35;;;;;;;2.67;0.50;;;23.00;33.60;;;;;;5049550;28;20929;-72
2021/05/06 14:30:01;;;;;;;2.17;0.60;;;23.00;33.60;;;;;;5049694;28;20386;-75
2021/05/06 14:32:27;;;;;;;1.53;0.60;;;23.00;33.60;;;;;;5050002;28;20401;-73
2021/05/06 14:34:55;;;;;;;1.20;0.50;;;23.00;33.60;;;;;;5053012;28;20409;-72
2021/05/06 14:37:22;;;;;;;1.50;0.45;;;23.00;33.60;;;;;;5035973;28;20388;-70
2021/05/06 14:39:48;;;;;;;2.47;0.90;;;23.00;33.60;;;;;;5053755;28;20392;-72
2021/05/06 14:42:14;;;;;;;3.23;0.83;;;22.90;33.50;;;;;;5054109;28;20389;-70
2021/05/06 14:44:39;;;;;;;2.10;0.80;;;23.00;33.50;;;;;;5053886;28;20860;-67
2021/05/06 14:47:05;;;;;;;2.67;0.70;;;22.80;33.50;;;;;;5017538;28;20715;-72
2021/05/06 14:49:31;;;;;;;4.93;0.80;;;22.90;33.50;;;;;;5035435;28;20915;-73
2021/05/06 14:51:57;;;;;;;3.22;0.90;;;22.80;33.70;;;;;;5053870;28;20476;-73
2021/05/06 14:54:22;;;;;;;2.30;0.60;;;22.90;33.60;;;;;;5053668;28;20789;-69
2021/05/06 14:56:48;;;;;;;2.20;0.70;;;22.90;33.50;;;;;;5053565;28;20385;-69
2021/05/06 14:59:13;;;;;;;1.30;0.53;;;22.90;33.30;;;;;;5053723;28;20400;-67
2021/05/06 15:01:39;;;;;;;5.10;0.80;;;22.90;33.30;;;;;;5053058;28;20489;-65
2021/05/06 15:04:05;;;;;;;4.60;0.97;;;22.90;34.00;;;;;;5035690;28;20500;-66
2021/05/06 15:06:31;;;;;;;6.45;0.90;;;23.00;35.70;;;;;;5053573;28;20457;-67
2021/05/06 15:08:59;;;;;;;4.80;0.90;;;23.10;35.40;;;;;;5035345;28;20444;-67
2021/05/06 15:11:25;;;;;;;4.35;0.80;;;23.20;35.00;;;;;;5053094;28;20386;-68
2021/05/06 15:13:51;;;;;;;3.33;0.80;;;23.20;34.70;;;;;;5035318;28;20424;-72
2021/05/06 15:16:16;;;;;;;3.90;0.80;;;23.20;34.60;;;;;;5053418;28;20393;-71
2021/05/06 15:18:42;;;;;;;2.85;0.60;;;23.20;34.90;;;;;;5035099;28;20481;-71
2021/05/06 15:21:08;;;;;;;11.07;0.82;;;23.20;34.70;;;;;;5053167;28;20445;-66
2021/05/06 15:23:33;;;;;;;4.65;0.60;;;23.10;34.60;;;;;;5052307;28;20416;-71
2021/05/06 15:25:59;;;;;;;6.80;1.00;;;23.10;34.70;;;;;;5053127;28;20394;-64
2021/05/06 15:28:24;;;;;;;5.03;0.83;;;23.10;34.80;;;;;;5053067;28;20896;-64
2021/05/06 15:30:53;;;;;;;2.45;0.77;;;23.20;34.70;;;;;;5053147;28;20389;-69
2021/05/06 15:33:19;;;;;;;2.95;0.65;;;23.20;34.50;;;;;;5035051;28;20421;-66
2021/05/06 15:35:45;;;;;;;2.97;0.70;;;23.20;34.50;;;;;;5034795;28;20460;-69
2021/05/06 15:38:11;;;;;;;2.47;0.60;;;23.20;34.40;;;;;;5036328;28;20810;-66
2021/05/06 15:40:39;;;;;;;2.53;0.70;;;23.20;34.30;;;;;;5054181;28;20449;-67
2021/05/06 15:43:05;;;;;;;2.60;0.73;;;23.20;34.30;;;;;;5036977;28;20397;-67
2021/05/06 15:45:31;;;;;;;3.23;0.70;;;23.20;34.40;;;;;;5052423;28;20385;-63
2021/05/06 15:47:56;;;;;;;4.03;0.80;;;23.10;34.50;;;;;;5036219;28;20881;-65
2021/05/06 15:50:22;;;;;;;3.13;0.80;;;23.10;34.60;;;;;;5054055;28;20884;-63
2021/05/06 15:52:49;;;;;;;2.78;0.73;;;23.10;34.70;;;;;;5055648;28;20416;-69
2021/05/06 15:55:15;;;;;;;5.18;1.00;;;23.10;34.40;;;;;;5036104;28;20955;-69
2021/05/06 15:57:44;;;;;;;4.70;0.70;;;23.10;34.70;;;;;;5053270;28;20389;-64
2021/05/06 16:00:12;;;;;;;4.80;0.70;;;23.10;35.30;;;;;;5035959;28;20397;-71
2021/05/06 16:02:40;;;;;;;3.83;0.90;;;23.10;35.30;;;;;;5053719;28;20443;-70
2021/05/06 16:05:10;;;;;;;2.83;0.90;;;23.20;35.50;;;;;;5053689;28;20394;-72
2021/05/06 16:07:36;;;;;;;4.45;1.10;;;23.20;35.50;;;;;;5054049;28;20385;-71
2021/05/06 16:10:02;;;;;;;6.32;1.02;;;23.20;35.60;;;;;;5054055;28;20393;-65
2021/05/06 16:12:28;;;;;;;4.75;0.80;;;23.20;36.00;;;;;;5053356;28;20401;-66
2021/05/06 16:14:54;;;;;;;6.65;0.90;;;23.20;36.10;;;;;;5052924;28;20506;-68
2021/05/06 16:17:19;;;;;;;4.13;1.00;;;23.20;35.90;;;;;;5053402;28;20881;-67
2021/05/06 16:19:45;;;;;;;5.57;0.82;;;23.20;35.80;;;;;;5052579;28;20689;-65
2021/05/06 16:22:11;;;;;;;6.00;0.83;;;23.10;35.60;;;;;;5053428;28;20726;-65
2021/05/06 16:24:36;;;;;;;3.80;0.80;;;23.10;35.90;;;;;;5053255;28;20416;-65